Time;durP1;ratioP1;P1;durP2;ratioP2;P2;SDS_P1;SDS_P2;PMS_P1;PMS_P2;Temp;Humidity;BMP_temperature;BMP_pressure;BME280_temperature;BME280_humidity;BME280_pressure;Samples;Min_cycle;Max_cycle;Signal;HPM_P1;HPM_P2
2023/04/01 00:01:02;;;;;;;1.05;0.45;;;17.80;38.30;;;;;;6027542;23;20202;-86
2023/04/01 00:03:28;;;;;;;0.73;0.57;;;17.90;38.30;;;;;;6026919;23;20193;-85
2023/04/01 00:05:58;;;;;;;0.75;0.75;;;17.90;38.30;;;;;;6050347;23;20215;-86
2023/04/01 00:08:30;;;;;;;0.55;0.50;;;17.90;38.40;;;;;;6002282;23;20160;-84
2023/04/01 00:10:56;;;;;;;1.23;0.47;;;17.90;38.40;;;;;;5954835;23;20156;-84
2023/04/01 00:13:23;;;;;;;1.02;0.50;;;17.90;38.50;;;;;;6026204;23;20157;-85
2023/04/01 00:15:49;;;;;;;1.75;0.40;;;17.90;38.50;;;;;;6050155;23;20208;-84
2023/04/01 00:18:15;;;;;;;0.55;0.40;;;17.90;38.50;;;;;;6026273;23;20232;-84
2023/04/01 00:20:46;;;;;;;1.38;0.40;;;17.90;38.60;;;;;;6050147;23;20157;-84
2023/04/01 00:23:12;;;;;;;1.83;0.40;;;17.80;38.60;;;;;;6027086;23;20260;-84
2023/04/01 00:25:43;;;;;;;1.85;0.40;;;17.80;38.60;;;;;;6026974;23;20518;-85
2023/04/01 00:28:09;;;;;;;0.80;0.40;;;17.80;38.60;;;;;;6025799;23;20640;-85
2023/04/01 00:30:40;;;;;;;0.73;0.35;;;17.80;38.60;;;;;;6051014;23;20455;-84
2023/04/01 00:33:06;;;;;;;0.68;0.60;;;17.80;38.60;;;;;;6002557;23;20157;-84
2023/04/01 00:35:35;;;;;;;1.33;0.40;;;17.80;38.60;;;;;;6050522;23;20149;-84
2023/04/01 00:38:02;;;;;;;0.50;0.40;;;17.80;38.60;;;;;;6002617;23;20176;-83
2023/04/01 00:40:39;;;;;;;0.30;0.30;;;17.80;38.60;;;;;;6050510;23;20137;-84
2023/04/01 00:43:19;;;;;;;1.10;0.52;;;17.80;38.70;;;;;;6026848;23;20561;-85
2023/04/01 00:45:45;;;;;;;1.00;0.57;;;17.80;38.70;;;;;;6004527;23;20160;-85
2023/04/01 00:48:15;;;;;;;0.63;0.40;;;17.80;38.70;;;;;;6050778;23;20216;-84
2023/04/01 00:50:42;;;;;;;0.95;0.40;;;17.70;38.70;;;;;;6075306;23;20188;-84
2023/04/01 00:53:08;;;;;;;0.73;0.43;;;17.70;38.70;;;;;;6050572;23;20194;-84
2023/04/01 00:55:35;;;;;;;0.85;0.50;;;17.80;38.70;;;;;;6027632;23;20154;-84
2023/04/01 00:58:07;;;;;;;0.73;0.50;;;17.80;38.80;;;;;;6026739;23;20526;-85
2023/04/01 01:00:33;;;;;;;1.15;0.57;;;17.80;38.70;;;;;;6003577;23;20212;-84
2023/04/01 01:02:59;;;;;;;0.63;0.40;;;17.80;38.80;;;;;;6050541;23;20186;-84
2023/04/01 01:06:06;;;;;;;1.70;0.40;;;17.80;38.80;;;;;;6076974;23;20138;-84
2023/04/01 01:08:45;;;;;;;0.52;0.40;;;17.70;38.80;;;;;;6076180;23;20126;-84
2023/04/01 01:11:15;;;;;;;1.35;0.40;;;17.80;38.80;;;;;;6050342;23;20145;-84
2023/04/01 01:13:48;;;;;;;1.20;0.50;;;17.80;38.90;;;;;;6002063;23;20153;-84
2023/04/01 01:16:25;;;;;;;0.60;0.40;;;17.80;38.90;;;;;;6026837;23;20150;-84
2023/04/01 01:19:02;;;;;;;1.38;0.50;;;17.80;38.90;;;;;;6029718;23;20188;-84
2023/04/01 01:22:06;;;;;;;1.55;0.50;;;17.80;39.00;;;;;;6007059;23;20157;-84
2023/04/01 01:24:52;;;;;;;0.45;0.30;;;17.70;38.90;;;;;;6060613;23;20463;-84
2023/04/01 01:27:18;;;;;;;0.47;0.45;;;17.70;39.00;;;;;;6076760;23;20134;-84
2023/04/01 01:29:59;;;;;;;0.70;0.50;;;17.70;38.90;;;;;;6051647;23;20137;-84
2023/04/01 01:33:07;;;;;;;0.55;0.50;;;17.70;38.90;;;;;;6052413;23;20158;-84
2023/04/01 01:35:40;;;;;;;1.65;0.50;;;17.80;39.10;;;;;;6051634;23;20180;-84
2023/04/01 01:38:15;;;;;;;0.52;0.40;;;17.70;39.00;;;;;;6052080;23;20146;-83
2023/04/01 01:40:51;;;;;;;0.75;0.40;;;17.70;39.00;;;;;;5981216;23;20188;-84
2023/04/01 01:43:26;;;;;;;1.27;0.40;;;17.70;39.10;;;;;;5982962;23;20195;-84
2023/04/01 01:45:55;;;;;;;0.68;0.50;;;17.70;39.10;;;;;;5981816;23;20264;-85
2023/04/01 01:48:22;;;;;;;0.35;0.30;;;17.70;39.10;;;;;;6028854;23;20150;-85
2023/04/01 01:50:48;;;;;;;0.80;0.40;;;17.70;39.10;;;;;;6028317;23;20201;-84
2023/04/01 01:53:14;;;;;;;0.40;0.40;;;17.80;39.10;;;;;;6052930;23;20161;-84
2023/04/01 01:55:42;;;;;;;0.65;0.60;;;17.70;39.10;;;;;;6052578;23;20161;-84
2023/04/01 01:58:20;;;;;;;0.40;0.40;;;17.70;39.10;;;;;;6052775;23;20145;-84
2023/04/01 02:00:52;;;;;;;0.98;0.52;;;17.70;39.10;;;;;;6078910;23;20604;-85
2023/04/01 02:03:18;;;;;;;0.85;0.50;;;17.70;39.10;;;;;;6053156;23;20177;-85
2023/04/01 02:05:44;;;;;;;0.55;0.40;;;17.70;39.20;;;;;;6053719;23;20153;-84
2023/04/01 02:08:18;;;;;;;0.45;0.38;;;17.70;39.10;;;;;;6053703;23;20581;-84
2023/04/01 02:10:49;;;;;;;0.52;0.40;;;17.70;39.20;;;;;;6004917;23;20535;-84
2023/04/01 02:13:20;;;;;;;0.68;0.43;;;17.70;39.10;;;;;;6029157;23;20581;-84
2023/04/01 02:15:47;;;;;;;0.40;0.40;;;17.70;39.10;;;;;;6052869;23;20152;-84
2023/04/01 02:18:17;;;;;;;1.40;0.40;;;17.70;39.20;;;;;;6052690;23;20145;-85
2023/04/01 02:20:43;;;;;;;0.73;0.50;;;17.70;39.20;;;;;;6005040;23;20173;-84
2023/04/01 02:23:09;;;;;;;0.57;0.40;;;17.70;39.30;;;;;;6053098;23;20162;-85
2023/04/01 02:25:36;;;;;;;0.57;0.40;;;17.70;39.30;;;;;;6052450;23;20134;-83
2023/04/01 02:28:03;;;;;;;0.40;0.40;;;17.70;39.20;;;;;;6052606;23;20138;-84
2023/04/01 02:30:34;;;;;;;0.40;0.40;;;17.70;39.20;;;;;;6078642;23;20221;-84
2023/04/01 02:33:00;;;;;;;1.40;0.50;;;17.70;39.30;;;;;;5959782;23;20472;-85
2023/04/01 02:35:26;;;;;;;0.70;0.30;;;17.70;39.40;;;;;;6053477;23;20223;-85
2023/04/01 02:37:52;;;;;;;0.82;0.30;;;17.70;39.40;;;;;;6029325;23;20153;-84
2023/04/01 02:40:23;;;;;;;0.60;0.50;;;17.70;39.30;;;;;;6053360;23;20133;-84
2023/04/01 02:42:53;;;;;;;0.82;0.40;;;17.70;39.40;;;;;;5981110;23;20185;-84
2023/04/01 02:45:19;;;;;;;2.85;0.47;;;17.70;39.40;;;;;;5981070;23;20236;-84
2023/04/01 02:47:50;;;;;;;0.50;0.45;;;17.70;39.40;;;;;;6077754;23;20134;-83
2023/04/01 02:50:16;;;;;;;0.95;0.30;;;17.70;39.40;;;;;;6028926;23;20146;-83
2023/04/01 02:52:42;;;;;;;0.30;0.30;;;17.70;39.30;;;;;;6075968;23;20202;-84
2023/04/01 02:55:08;;;;;;;3.10;0.50;;;17.70;39.30;;;;;;6052702;23;20150;-84
2023/04/01 02:57:38;;;;;;;0.45;0.40;;;17.70;39.30;;;;;;6052814;23;20142;-85
2023/04/01 03:00:06;;;;;;;0.60;0.60;;;17.70;39.50;;;;;;6051876;23;20157;-84
2023/04/01 03:02:38;;;;;;;1.05;0.50;;;17.60;39.40;;;;;;6052694;23;20178;-84
2023/04/01 03:05:05;;;;;;;0.60;0.60;;;17.60;39.30;;;;;;6004960;23;20213;-84
2023/04/01 03:07:31;;;;;;;0.40;0.40;;;17.70;39.40;;;;;;6053135;23;20146;-84
2023/04/01 03:10:01;;;;;;;0.57;0.57;;;17.70;39.40;;;;;;6052218;23;20197;-84
2023/04/01 03:12:28;;;;;;;0.95;0.38;;;17.60;39.40;;;;;;5980695;23;20217;-85
2023/04/01 03:14:53;;;;;;;1.55;0.60;;;17.70;39.40;;;;;;6053457;23;20278;-84
2023/04/01 03:17:19;;;;;;;0.30;0.30;;;17.60;39.50;;;;;;6053457;23;20137;-85
2023/04/01 03:19:49;;;;;;;0.63;0.40;;;17.60;39.60;;;;;;6078860;23;20165;-84
2023/04/01 03:22:15;;;;;;;1.27;0.50;;;17.60;39.50;;;;;;6004846;23;20184;-83
2023/04/01 03:24:41;;;;;;;0.47;0.40;;;17.60;39.50;;;;;;6029742;23;20148;-85
2023/04/01 03:27:07;;;;;;;0.35;0.35;;;17.70;39.50;;;;;;6078294;23;20142;-84
2023/04/01 03:29:33;;;;;;;0.70;0.40;;;17.70;39.50;;;;;;6052985;23;20184;-84
2023/04/01 03:31:59;;;;;;;0.60;0.55;;;17.60;39.50;;;;;;6053700;23;20137;-84
2023/04/01 03:34:29;;;;;;;0.75;0.43;;;17.60;39.50;;;;;;6053866;23;20169;-84
2023/04/01 03:36:59;;;;;;;1.92;0.60;;;17.60;39.50;;;;;;6003161;23;20164;-84
2023/04/01 03:39:28;;;;;;;0.75;0.40;;;17.60;39.50;;;;;;6003109;23;20168;-85
2023/04/01 03:41:55;;;;;;;0.40;0.40;;;17.70;39.60;;;;;;6002468;23;20185;-84
2023/04/01 03:44:25;;;;;;;0.88;0.60;;;17.60;39.60;;;;;;6049323;23;20146;-84
2023/04/01 03:46:51;;;;;;;0.88;0.50;;;17.70;39.50;;;;;;6002205;23;20157;-84
2023/04/01 03:49:16;;;;;;;1.05;0.55;;;17.60;39.50;;;;;;6047356;23;20442;-84
2023/04/01 03:51:43;;;;;;;1.58;0.40;;;17.60;39.50;;;;;;6054569;23;20232;-84
2023/04/01 03:54:13;;;;;;;0.40;0.40;;;17.70;39.60;;;;;;6053725;23;20138;-84
2023/04/01 03:56:39;;;;;;;1.92;0.50;;;17.70;39.60;;;;;;5982186;23;20169;-84
2023/04/01 03:59:06;;;;;;;0.77;0.40;;;17.60;39.50;;;;;;6029458;23;20158;-84
2023/04/01 04:01:32;;;;;;;1.33;0.60;;;17.60;39.60;;;;;;6052348;23;20157;-84
2023/04/01 04:04:04;;;;;;;0.73;0.40;;;17.60;39.60;;;;;;6029839;23;20174;-84
2023/04/01 04:06:30;;;;;;;1.38;0.60;;;17.60;39.60;;;;;;5981518;23;20278;-85
2023/04/01 04:08:56;;;;;;;0.40;0.40;;;17.60;39.50;;;;;;6052687;23;20169;-84
2023/04/01 04:11:28;;;;;;;0.40;0.40;;;17.60;39.60;;;;;;6028629;23;20175;-86
2023/04/01 04:13:54;;;;;;;0.70;0.60;;;17.60;39.60;;;;;;5981976;23;20476;-84
2023/04/01 04:16:26;;;;;;;0.82;0.50;;;17.60;39.60;;;;;;6029571;23;20157;-84
2023/04/01 04:18:57;;;;;;;1.00;0.40;;;17.60;39.70;;;;;;5982454;23;20153;-84
2023/04/01 04:21:23;;;;;;;0.43;0.40;;;17.60;39.70;;;;;;6028919;23;20236;-84
2023/04/01 04:23:50;;;;;;;0.40;0.40;;;17.60;39.80;;;;;;6029959;23;20176;-84
2023/04/01 04:26:24;;;;;;;0.40;0.40;;;17.60;39.70;;;;;;6054327;23;20152;-85
2023/04/01 04:28:54;;;;;;;0.45;0.45;;;17.60;39.70;;;;;;6005819;23;20257;-84
2023/04/01 04:31:21;;;;;;;0.52;0.43;;;17.60;39.70;;;;;;6029746;23;20165;-85
2023/04/01 04:33:52;;;;;;;1.20;0.50;;;17.60;39.70;;;;;;6030137;23;20160;-84
2023/04/01 04:36:22;;;;;;;0.43;0.40;;;17.60;39.70;;;;;;6006583;23;20213;-84
2023/04/01 04:38:48;;;;;;;0.55;0.45;;;17.60;39.80;;;;;;6005581;23;20213;-83
2023/04/01 04:41:14;;;;;;;0.60;0.47;;;17.70;39.80;;;;;;6053107;23;20137;-85
2023/04/01 04:43:52;;;;;;;0.47;0.47;;;17.60;39.80;;;;;;6053589;23;20610;-85
2023/04/01 04:46:25;;;;;;;0.40;0.40;;;17.60;39.70;;;;;;5985665;23;20150;-84
2023/04/01 04:48:58;;;;;;;0.40;0.40;;;17.60;39.70;;;;;;6029461;23;20596;-84
2023/04/01 04:51:23;;;;;;;0.40;0.40;;;17.60;39.80;;;;;;6028553;23;20641;-83
2023/04/01 04:53:56;;;;;;;0.55;0.45;;;17.60;39.80;;;;;;6030565;23;20156;-84
2023/04/01 04:56:22;;;;;;;1.33;0.40;;;17.60;39.80;;;;;;6053192;23;20224;-84
2023/04/01 04:58:48;;;;;;;1.20;0.50;;;17.60;39.80;;;;;;6053187;23;20501;-84
2023/04/01 05:01:15;;;;;;;0.57;0.50;;;17.70;39.80;;;;;;6053508;23;20138;-84
2023/04/01 05:03:41;;;;;;;0.47;0.47;;;17.60;39.80;;;;;;6028892;23;20196;-84
2023/04/01 05:06:08;;;;;;;1.80;0.50;;;17.60;39.80;;;;;;6077835;23;20582;-84
2023/04/01 05:08:34;;;;;;;0.50;0.50;;;17.60;39.80;;;;;;6051740;23;20134;-84
2023/04/01 05:11:01;;;;;;;0.40;0.40;;;17.60;39.80;;;;;;6052811;23;20653;-83
2023/04/01 05:13:27;;;;;;;0.77;0.50;;;17.60;39.80;;;;;;6051666;23;20154;-85
2023/04/01 05:15:59;;;;;;;0.73;0.50;;;17.60;39.80;;;;;;6028835;23;20160;-84
2023/04/01 05:18:25;;;;;;;0.40;0.40;;;17.60;39.80;;;;;;6053282;23;20659;-83
2023/04/01 05:20:56;;;;;;;0.75;0.50;;;17.60;39.80;;;;;;6054297;23;20156;-83
2023/04/01 05:23:26;;;;;;;1.40;0.43;;;17.60;39.90;;;;;;6055011;23;20195;-83
2023/04/01 05:25:56;;;;;;;0.68;0.57;;;17.60;39.80;;;;;;6054917;23;20153;-83
2023/04/01 05:28:26;;;;;;;0.85;0.55;;;17.60;39.80;;;;;;6054624;23;20322;-83
2023/04/01 05:30:58;;;;;;;0.40;0.38;;;17.60;40.00;;;;;;6055058;23;20177;-83
2023/04/01 05:33:24;;;;;;;0.47;0.43;;;17.60;39.90;;;;;;6031533;23;20164;-83
2023/04/01 05:35:54;;;;;;;0.75;0.43;;;17.60;39.90;;;;;;6056307;23;20507;-83
2023/04/01 05:38:20;;;;;;;0.65;0.65;;;17.60;39.90;;;;;;6031093;23;20205;-83
2023/04/01 05:40:50;;;;;;;0.57;0.40;;;17.70;39.80;;;;;;6056008;23;20152;-83
2023/04/01 05:43:16;;;;;;;0.93;0.60;;;17.70;39.80;;;;;;6031865;23;20240;-83
2023/04/01 05:45:42;;;;;;;0.80;0.60;;;17.60;39.70;;;;;;6081240;23;20213;-84
2023/04/01 05:48:08;;;;;;;0.40;0.40;;;17.70;39.70;;;;;;6055812;23;20204;-84
2023/04/01 05:50:34;;;;;;;0.43;0.43;;;17.70;39.80;;;;;;6054881;23;20189;-83
2023/04/01 05:53:03;;;;;;;0.98;0.50;;;17.70;39.80;;;;;;6050210;23;20213;-84
2023/04/01 05:55:29;;;;;;;1.25;0.50;;;17.70;39.80;;;;;;5982202;23;20157;-82
2023/04/01 05:57:56;;;;;;;0.50;0.45;;;17.70;39.60;;;;;;6055642;23;20216;-83
2023/04/01 06:00:22;;;;;;;0.57;0.57;;;17.80;39.60;;;;;;6056855;23;20483;-83
2023/04/01 06:02:52;;;;;;;2.17;0.65;;;17.80;39.50;;;;;;6081883;23;20169;-83
2023/04/01 06:05:20;;;;;;;0.85;0.43;;;17.80;39.50;;;;;;5985990;23;20157;-82
2023/04/01 06:07:46;;;;;;;0.50;0.50;;;17.80;39.40;;;;;;6032454;23;20574;-82
2023/04/01 06:10:25;;;;;;;0.80;0.70;;;17.90;40.10;;;;;;6033057;23;20526;-83
2023/04/01 06:13:05;;;;;;;0.60;0.60;;;17.90;39.30;;;;;;5986357;23;20157;-83
2023/04/01 06:15:43;;;;;;;0.40;0.40;;;18.00;39.30;;;;;;6033805;23;20216;-82
2023/04/01 06:18:35;;;;;;;0.45;0.45;;;18.00;39.30;;;;;;6009108;23;20164;-82
2023/04/01 06:21:39;;;;;;;0.63;0.60;;;18.00;39.20;;;;;;6079465;23;20150;-81
2023/04/01 06:24:25;;;;;;;1.08;0.50;;;17.90;39.30;;;;;;6061882;23;20176;-82
2023/04/01 06:27:05;;;;;;;1.23;0.60;;;18.00;39.30;;;;;;6038484;23;20158;-81
2023/04/01 06:30:05;;;;;;;0.77;0.50;;;18.10;39.30;;;;;;6011331;23;20165;-83
2023/04/01 06:32:49;;;;;;;1.80;0.50;;;18.00;39.20;;;;;;6041156;23;20142;-82
2023/04/01 06:35:22;;;;;;;1.45;0.50;;;18.10;39.20;;;;;;6057598;23;20161;-82
2023/04/01 06:38:11;;;;;;;0.77;0.40;;;18.10;39.10;;;;;;5986596;23;20153;-83
2023/04/01 06:41:01;;;;;;;0.60;0.60;;;18.20;39.10;;;;;;6014769;23;20157;-82
2023/04/01 06:43:54;;;;;;;1.42;0.50;;;18.20;39.10;;;;;;6052903;23;20184;-82
2023/04/01 06:46:44;;;;;;;3.53;0.60;;;18.10;39.20;;;;;;6080670;23;20142;-82
2023/04/01 06:49:29;;;;;;;1.05;0.50;;;18.10;39.50;;;;;;6051598;23;20137;-83
2023/04/01 06:52:19;;;;;;;0.88;0.50;;;18.10;39.60;;;;;;6077275;23;20224;-83
2023/04/01 06:54:53;;;;;;;0.85;0.50;;;18.10;39.70;;;;;;6051134;23;20201;-82
2023/04/01 06:57:31;;;;;;;1.67;0.47;;;18.10;39.80;;;;;;6000295;23;20168;-82
2023/04/01 06:59:58;;;;;;;2.70;0.63;;;18.10;40.00;;;;;;6048356;23;20169;-81
2023/04/01 07:02:38;;;;;;;4.40;0.75;;;18.10;40.00;;;;;;6051698;23;20183;-81
2023/04/01 07:05:11;;;;;;;2.60;0.60;;;18.10;39.80;;;;;;6076966;23;20153;-81
2023/04/01 07:07:45;;;;;;;4.07;0.50;;;18.20;40.00;;;;;;5981923;23;20493;-81
2023/04/01 07:10:15;;;;;;;2.95;0.60;;;18.30;39.50;;;;;;6051246;23;20160;-81
2023/04/01 07:12:49;;;;;;;1.63;0.60;;;18.30;39.50;;;;;;6050821;23;20142;-81
2023/04/01 07:15:19;;;;;;;4.68;0.55;;;18.40;39.30;;;;;;6025234;23;20538;-82
2023/04/01 07:17:45;;;;;;;3.63;0.40;;;18.40;39.20;;;;;;6075021;23;20142;-81
2023/04/01 07:20:17;;;;;;;4.03;0.60;;;18.40;39.20;;;;;;6051008;23;20153;-82
2023/04/01 07:22:45;;;;;;;1.45;0.85;;;18.50;39.10;;;;;;6049748;23;20561;-82
2023/04/01 07:25:17;;;;;;;1.30;0.70;;;18.50;39.10;;;;;;6049922;23;20138;-82
2023/04/01 07:27:43;;;;;;;0.98;0.38;;;18.60;39.00;;;;;;6026183;23;20153;-82
2023/04/01 07:30:18;;;;;;;3.83;0.90;;;18.60;38.90;;;;;;6050561;23;20140;-81
2023/04/01 07:33:15;;;;;;;4.00;0.60;;;18.60;38.90;;;;;;6073697;23;20176;-83
2023/04/01 07:36:05;;;;;;;2.97;0.98;;;18.60;39.20;;;;;;6072021;23;20158;-83
2023/04/01 07:38:50;;;;;;;2.17;0.68;;;18.60;39.40;;;;;;5986762;23;20157;-82
2023/04/01 07:41:56;;;;;;;1.33;0.70;;;18.60;39.30;;;;;;6046021;23;20451;-81
2023/04/01 07:44:41;;;;;;;4.28;0.55;;;18.60;39.30;;;;;;6012949;23;20165;-81
2023/04/01 07:47:19;;;;;;;1.23;0.50;;;18.50;39.60;;;;;;6004903;23;20193;-81
2023/04/01 07:50:01;;;;;;;3.28;0.80;;;18.40;39.70;;;;;;6049916;23;20144;-83
2023/04/01 07:52:43;;;;;;;4.75;1.00;;;18.60;39.90;;;;;;6009187;23;20569;-80
2023/04/01 07:55:25;;;;;;;2.78;0.70;;;18.60;39.60;;;;;;6050132;23;20141;-82
2023/04/01 07:58:14;;;;;;;2.90;0.63;;;18.60;39.80;;;;;;6072522;23;20444;-82
2023/04/01 08:01:05;;;;;;;2.22;0.75;;;18.70;39.60;;;;;;6049209;23;20197;-81
2023/04/01 08:03:58;;;;;;;2.58;0.80;;;18.70;39.70;;;;;;6027131;23;20210;-83
2023/04/01 08:06:45;;;;;;;6.70;0.80;;;18.60;39.90;;;;;;6074346;23;20142;-82
2023/04/01 08:09:27;;;;;;;2.05;0.65;;;18.70;40.00;;;;;;6074386;23;20209;-83
2023/04/01 08:12:04;;;;;;;3.25;0.40;;;18.70;40.00;;;;;;6073372;23;20145;-83
2023/04/01 08:14:47;;;;;;;1.45;0.77;;;18.70;40.10;;;;;;6043808;23;20142;-83
2023/04/01 08:17:35;;;;;;;4.20;0.93;;;18.60;40.10;;;;;;6072037;23;20150;-84
2023/04/01 08:20:29;;;;;;;2.67;0.77;;;18.60;40.10;;;;;;5981730;23;20566;-83
2023/04/01 08:23:15;;;;;;;3.55;1.10;;;18.70;39.80;;;;;;6026397;23;20209;-82
2023/04/01 08:25:46;;;;;;;2.95;0.82;;;18.90;39.80;;;;;;6007818;23;20463;-82
2023/04/01 08:28:20;;;;;;;4.07;0.60;;;18.80;39.60;;;;;;6047411;23;20205;-83
2023/04/01 08:31:05;;;;;;;4.93;0.63;;;18.80;39.70;;;;;;5977585;23;20157;-82
2023/04/01 08:33:31;;;;;;;4.47;0.75;;;18.70;39.80;;;;;;6072343;23;20138;-81
2023/04/01 08:36:15;;;;;;;9.40;0.93;;;18.70;40.00;;;;;;6047009;23;20593;-82
2023/04/01 08:38:49;;;;;;;1.95;0.70;;;18.70;40.50;;;;;;6012112;23;20209;-81
2023/04/01 08:41:27;;;;;;;9.30;0.90;;;18.70;39.90;;;;;;6049324;23;20145;-83
2023/04/01 08:44:14;;;;;;;3.63;0.60;;;18.70;40.10;;;;;;6046429;23;20172;-82
2023/04/01 08:47:05;;;;;;;1.33;0.50;;;18.70;40.20;;;;;;6073677;23;20216;-82
2023/04/01 08:49:50;;;;;;;3.58;0.70;;;18.70;40.20;;;;;;6031159;23;20644;-82
2023/04/01 08:52:33;;;;;;;5.05;0.80;;;18.70;40.10;;;;;;6047600;23;20197;-81
2023/04/01 08:55:35;;;;;;;;;;;;;;;;;;;;;
2023/04/01 08:58:35;;;;;;;5.50;0.80;;;18.80;40.60;;;;;;6022792;23;20597;-84
2023/04/01 09:01:15;;;;;;;7.13;0.90;;;18.70;40.30;;;;;;6051081;23;20220;-82
2023/04/01 09:04:17;;;;;;;12.88;0.95;;;18.70;40.40;;;;;;6073310;23;20190;-81
2023/04/01 09:07:05;;;;;;;11.13;0.85;;;18.80;40.50;;;;;;6073993;23;20149;-83
2023/04/01 09:09:48;;;;;;;5.50;0.73;;;18.80;40.60;;;;;;6075821;23;20212;-85
2023/04/01 09:12:33;;;;;;;4.28;0.77;;;18.90;40.60;;;;;;6049491;23;20575;-84
2023/04/01 09:15:45;;;;;;;6.40;0.70;;;18.80;41.00;;;;;;6052791;23;20157;-84
2023/04/01 09:18:44;;;;;;;8.38;0.77;;;18.80;40.90;;;;;;6029090;23;20169;-84
2023/04/01 09:21:18;;;;;;;5.88;0.90;;;18.80;41.10;;;;;;6074873;23;20142;-84
2023/04/01 09:24:00;;;;;;;6.03;0.77;;;18.80;40.60;;;;;;6074700;23;20487;-82
2023/04/01 09:27:02;;;;;;;9.50;0.70;;;18.90;40.50;;;;;;6051713;23;20144;-83
2023/04/01 09:29:55;;;;;;;3.35;0.80;;;18.80;40.60;;;;;;6050632;23;20273;-83
2023/04/01 09:32:53;;;;;;;6.63;0.88;;;18.80;40.30;;;;;;6031558;23;20184;-83
2023/04/01 09:35:39;;;;;;;6.13;1.02;;;18.90;40.40;;;;;;6079891;23;20144;-83
2023/04/01 09:38:30;;;;;;;6.30;0.90;;;18.90;40.80;;;;;;6051503;23;20130;-84
2023/04/01 09:41:32;;;;;;;13.65;1.35;;;18.80;40.90;;;;;;6082482;23;20145;-82
2023/04/01 09:44:04;;;;;;;7.63;1.25;;;18.90;41.10;;;;;;6085387;23;20239;-82
2023/04/01 09:46:56;;;;;;;8.65;0.90;;;18.80;41.50;;;;;;6053445;23;20149;-83
2023/04/01 09:49:35;;;;;;;4.35;0.60;;;18.90;41.70;;;;;;6054951;23;20146;-82
2023/04/01 09:52:27;;;;;;;6.88;0.90;;;18.80;41.40;;;;;;6079483;23;20188;-81
2023/04/01 09:55:24;;;;;;;4.70;0.93;;;18.80;41.80;;;;;;6084727;23;20141;-83
2023/04/01 09:58:14;;;;;;;7.95;1.30;;;18.80;41.90;;;;;;6055703;23;20149;-83
2023/04/01 10:00:53;;;;;;;7.80;0.90;;;18.80;42.00;;;;;;6033368;23;20156;-83
2023/04/01 10:03:32;;;;;;;4.43;0.50;;;18.80;42.00;;;;;;6054986;23;20176;-84
2023/04/01 10:06:14;;;;;;;6.75;0.93;;;18.80;42.10;;;;;;6032273;23;20208;-83
2023/04/01 10:08:56;;;;;;;2.85;0.60;;;18.80;41.70;;;;;;6081598;23;20129;-84
2023/04/01 10:11:44;;;;;;;10.93;1.02;;;18.80;42.10;;;;;;6030113;23;20149;-84
2023/04/01 10:14:24;;;;;;;7.93;0.90;;;18.80;42.20;;;;;;6034234;23;20477;-85
2023/04/01 10:17:31;;;;;;;8.93;1.00;;;18.80;41.90;;;;;;6057149;23;20154;-84
2023/04/01 10:20:30;;;;;;;4.25;0.73;;;18.80;42.30;;;;;;6059740;23;20149;-84
2023/04/01 10:23:34;;;;;;;7.00;1.13;;;18.80;42.20;;;;;;6027816;23;20186;-83
2023/04/01 10:26:25;;;;;;;8.15;0.90;;;18.80;42.30;;;;;;6024109;23;20160;-84
2023/04/01 10:29:16;;;;;;;6.30;0.77;;;18.80;42.50;;;;;;5982108;23;20165;-84
2023/04/01 10:32:14;;;;;;;7.35;0.73;;;18.80;42.20;;;;;;5981835;23;20242;-83
2023/04/01 10:34:56;;;;;;;7.85;0.90;;;18.90;42.20;;;;;;6047508;23;20280;-85
2023/04/01 10:37:54;;;;;;;5.30;1.05;;;18.90;41.80;;;;;;5999231;23;20162;-84
2023/04/01 10:40:36;;;;;;;4.97;0.73;;;18.90;42.10;;;;;;5999751;23;20154;-84
2023/04/01 10:43:19;;;;;;;5.82;0.80;;;18.90;42.60;;;;;;6024093;23;20173;-84
2023/04/01 10:45:50;;;;;;;5.30;0.88;;;18.80;42.30;;;;;;5999209;23;20182;-82
2023/04/01 10:48:54;;;;;;;2.92;0.75;;;18.80;42.30;;;;;;6023517;23;20150;-84
2023/04/01 10:51:51;;;;;;;5.78;0.80;;;18.80;42.30;;;;;;6011361;23;20198;-84
2023/04/01 10:54:34;;;;;;;6.25;0.90;;;18.80;42.10;;;;;;5973556;23;20650;-84
2023/04/01 10:57:14;;;;;;;8.98;0.98;;;18.90;42.40;;;;;;5973006;23;20249;-83
2023/04/01 11:00:05;;;;;;;5.28;0.85;;;18.90;42.80;;;;;;6000775;23;20165;-83
2023/04/01 11:03:11;;;;;;;10.10;1.15;;;18.90;42.60;;;;;;5993154;23;20183;-84
2023/04/01 11:06:05;;;;;;;5.22;1.00;;;18.70;43.00;;;;;;6032288;23;20154;-84
2023/04/01 11:08:48;;;;;;;11.23;0.90;;;18.90;42.50;;;;;;6022462;23;20158;-84
2023/04/01 11:11:36;;;;;;;8.20;0.80;;;18.90;42.80;;;;;;6023886;23;20221;-85
2023/04/01 11:14:27;;;;;;;3.63;0.75;;;18.80;42.90;;;;;;6043809;23;20523;-84
2023/04/01 11:17:23;;;;;;;6.47;1.08;;;18.90;43.10;;;;;;6046179;23;20135;-84
2023/04/01 11:20:24;;;;;;;10.48;0.90;;;18.80;43.20;;;;;;6043519;23;20174;-83
2023/04/01 11:23:13;;;;;;;5.72;0.80;;;18.90;43.10;;;;;;6046846;23;20262;-85
2023/04/01 11:26:10;;;;;;;3.30;0.73;;;18.90;42.80;;;;;;6022788;23;20130;-84
2023/04/01 11:28:55;;;;;;;6.18;0.70;;;18.90;42.60;;;;;;5998941;23;20157;-84
2023/04/01 11:31:29;;;;;;;4.05;0.80;;;18.90;42.60;;;;;;6026914;23;20202;-85
2023/04/01 11:34:24;;;;;;;7.80;0.52;;;18.90;42.00;;;;;;6024074;23;20139;-83
2023/04/01 11:37:03;;;;;;;4.18;0.50;;;18.90;42.30;;;;;;5982588;23;20456;-85
2023/04/01 11:39:59;;;;;;;7.88;0.73;;;18.90;42.10;;;;;;6049538;23;20205;-84
2023/04/01 11:43:02;;;;;;;;;;;;;;;;;;;;;
2023/04/01 11:46:18;;;;;;;5.38;0.80;;;18.80;41.70;;;;;;6045364;23;20153;-86
2023/04/01 11:49:05;;;;;;;8.93;0.77;;;18.80;41.80;;;;;;6021959;23;20206;-84
2023/04/01 11:51:43;;;;;;;10.25;0.93;;;18.80;42.10;;;;;;6019787;23;20201;-83
2023/04/01 11:54:46;;;;;;;1.55;0.60;;;18.80;42.50;;;;;;6052960;23;20485;-82
2023/04/01 11:57:46;;;;;;;9.40;0.90;;;18.80;42.30;;;;;;6053324;23;20153;-82
2023/04/01 12:00:33;;;;;;;5.47;0.82;;;18.80;42.40;;;;;;6050453;23;20224;-82
2023/04/01 12:03:33;;;;;;;9.77;1.05;;;18.80;42.70;;;;;;5992211;23;20182;-84
2023/04/01 12:06:33;;;;;;;4.25;0.77;;;18.80;41.90;;;;;;6010077;23;20162;-83
2023/04/01 12:09:21;;;;;;;4.65;0.82;;;18.90;42.10;;;;;;5951603;24;20171;-83
2023/04/01 12:12:26;;;;;;;3.60;0.60;;;18.80;41.90;;;;;;5934096;24;20152;-83
2023/04/01 12:15:25;;;;;;;4.72;0.52;;;18.90;42.00;;;;;;5908439;24;20176;-84
2023/04/01 12:22:57;;;;;;;6.65;0.98;;;18.90;41.80;;;;;;5759263;24;20165;-85
2023/04/01 12:25:07;;;;;;;5.68;1.00;;;18.80;41.90;;;;;;5718645;25;20218;-84
2023/04/01 12:27:48;;;;;;;7.20;1.05;;;18.90;42.10;;;;;;5745197;25;20249;-85
2023/04/01 12:30:45;;;;;;;8.63;1.35;;;18.90;41.90;;;;;;5699822;25;20523;-88
2023/04/01 12:33:31;;;;;;;9.15;0.90;;;18.90;42.50;;;;;;5714926;25;20647;-85
2023/04/01 12:36:42;;;;;;;6.00;0.93;;;18.90;41.80;;;;;;5697569;25;20234;-87
2023/04/01 12:46:19;;;;;;;7.65;0.63;;;18.90;42.40;;;;;;5764476;24;20284;-84
2023/04/01 12:52:45;;;;;;;3.83;0.63;;;18.90;41.20;;;;;;5714913;25;20729;-86
2023/04/01 12:55:54;;;;;;;4.88;0.70;;;18.80;41.60;;;;;;5678213;25;20166;-85
2023/04/01 12:59:09;;;;;;;6.80;0.52;;;18.80;41.40;;;;;;5731035;24;20160;-83
2023/04/01 13:02:10;;;;;;;3.25;0.60;;;18.80;41.70;;;;;;5770575;24;20199;-87
2023/04/01 13:05:11;;;;;;;2.30;0.50;;;18.90;41.60;;;;;;5760730;24;20173;-83
2023/04/01 13:11:33;;;;;;;5.70;0.80;;;18.80;40.80;;;;;;5720712;24;20184;-87
2023/04/01 13:14:16;;;;;;;4.15;0.50;;;18.80;40.80;;;;;;5725557;25;20173;-88
2023/04/01 13:17:10;;;;;;;4.38;0.57;;;18.80;42.00;;;;;;5700596;25;20167;-85
2023/04/01 13:19:55;;;;;;;3.20;0.52;;;18.80;41.20;;;;;;5669127;25;20667;-88
2023/04/01 13:22:50;;;;;;;3.80;0.73;;;18.80;41.00;;;;;;5723741;24;20208;-85
2023/04/01 13:25:35;;;;;;;3.72;0.60;;;18.80;41.10;;;;;;5743216;24;20160;-87
2023/04/01 13:28:16;;;;;;;2.92;0.60;;;18.80;40.40;;;;;;5769417;24;20205;-86
2023/04/01 13:30:54;;;;;;;1.73;0.40;;;18.90;39.90;;;;;;5751712;24;20164;-85
2023/04/01 13:34:47;;;;;;;1.20;0.40;;;18.80;39.90;;;;;;5797496;24;20161;-85
2023/04/01 13:37:26;;;;;;;11.57;1.13;;;18.80;40.50;;;;;;5813025;24;20249;-86
2023/04/01 13:40:35;;;;;;;4.03;0.50;;;18.80;40.30;;;;;;5857098;24;20166;-86
2023/04/01 13:43:16;;;;;;;10.57;0.65;;;18.80;40.50;;;;;;5855769;24;20183;-87
2023/04/01 13:46:46;;;;;;;2.38;0.43;;;18.80;40.20;;;;;;5854293;24;20174;-85
2023/04/01 13:49:46;;;;;;;2.55;0.70;;;18.80;39.60;;;;;;5768157;24;20164;-88
2023/04/01 13:53:00;;;;;;;3.22;0.40;;;18.90;40.00;;;;;;5849644;24;20289;-87
2023/04/01 13:56:30;;;;;;;3.45;0.50;;;18.90;39.90;;;;;;5837655;24;20188;-87
2023/04/01 13:59:16;;;;;;;4.35;0.80;;;18.80;39.80;;;;;;5851211;24;20249;-87
2023/04/01 14:02:32;;;;;;;4.93;0.52;;;18.80;39.50;;;;;;5871281;24;20234;-87
2023/04/01 14:05:33;;;;;;;0.95;0.38;;;18.90;39.30;;;;;;5850126;24;20174;-86
2023/04/01 14:08:27;;;;;;;1.40;0.43;;;18.90;39.00;;;;;;5847758;24;20230;-87
2023/04/01 14:11:15;;;;;;;2.95;0.47;;;18.90;39.00;;;;;;5826457;24;20616;-87